Time;durP1;ratioP1;P1;durP2;ratioP2;P2;SDS_P1;SDS_P2;PMS_P1;PMS_P2;Temp;Humidity;BMP_temperature;BMP_pressure;BME280_temperature;BME280_humidity;BME280_pressure;Samples;Min_cycle;Max_cycle;Signal;HPM_P1;HPM_P2
2023/11/03 00:00:00;;;;;;;3.58;1.23;;;11.60;99.90;;;;;;4909401;28;20050;-75
2023/11/03 00:02:46;;;;;;;3.10;0.90;;;11.60;99.90;;;;;;4917921;28;20073;-74
2023/11/03 00:05:38;;;;;;;4.65;1.08;;;11.60;99.90;;;;;;4925741;28;20050;-75
2023/11/03 00:08:24;;;;;;;4.10;1.10;;;11.50;99.90;;;;;;4916159;28;20535;-75
2023/11/03 00:11:10;;;;;;;4.80;1.00;;;11.50;99.90;;;;;;4941371;28;20051;-77
2023/11/03 00:13:56;;;;;;;5.20;1.17;;;11.50;99.90;;;;;;4953612;28;20627;-74
2023/11/03 00:16:45;;;;;;;7.45;1.73;;;11.50;99.90;;;;;;4945442;28;20095;-77
2023/11/03 00:19:31;;;;;;;4.82;0.93;;;11.40;99.90;;;;;;4939811;28;20564;-74
2023/11/03 00:22:18;;;;;;;6.40;1.27;;;11.40;99.90;;;;;;4942205;28;20461;-74
2023/11/03 00:25:11;;;;;;;5.93;1.00;;;11.40;99.90;;;;;;4957166;28;20027;-78
2023/11/03 00:28:00;;;;;;;3.40;0.90;;;11.40;99.90;;;;;;4956043;28;20039;-74
2023/11/03 00:30:46;;;;;;;4.22;1.20;;;11.30;99.90;;;;;;4965121;28;20050;-77
2023/11/03 00:33:32;;;;;;;5.47;1.05;;;11.30;99.90;;;;;;4965806;28;20101;-77
2023/11/03 00:36:19;;;;;;;3.80;1.08;;;11.30;99.90;;;;;;4972305;28;20133;-75
2023/11/03 00:39:07;;;;;;;3.55;0.90;;;11.20;99.90;;;;;;4973383;28;20046;-75
2023/11/03 00:41:53;;;;;;;9.55;2.10;;;11.20;99.90;;;;;;4959907;28;20129;-75
2023/11/03 00:44:39;;;;;;;4.25;1.35;;;11.20;99.90;;;;;;4979634;28;20058;-78
2023/11/03 00:47:25;;;;;;;6.15;1.38;;;11.20;99.90;;;;;;4964170;28;20039;-77
2023/11/03 00:50:12;;;;;;;6.10;1.02;;;11.10;99.90;;;;;;4977252;28;20053;-76
2023/11/03 00:52:58;;;;;;;3.47;1.05;;;11.20;99.90;;;;;;4953493;28;20375;-75
2023/11/03 00:55:44;;;;;;;5.13;1.10;;;11.10;99.90;;;;;;4962906;28;20042;-75
2023/11/03 00:58:30;;;;;;;5.97;1.38;;;11.00;99.90;;;;;;4976222;28;20063;-77
2023/11/03 01:01:16;;;;;;;3.55;1.00;;;11.00;99.90;;;;;;4963375;28;20039;-77
2023/11/03 01:04:02;;;;;;;8.70;1.13;;;11.10;99.90;;;;;;4972158;28;20109;-76
2023/11/03 01:06:49;;;;;;;6.72;1.15;;;11.10;99.90;;;;;;4963033;28;20046;-74
2023/11/03 01:09:35;;;;;;;5.55;0.95;;;11.10;99.90;;;;;;4977285;28;20038;-77
2023/11/03 01:12:21;;;;;;;6.32;1.35;;;11.10;99.90;;;;;;4945953;28;20106;-75
2023/11/03 01:15:12;;;;;;;5.85;1.63;;;11.00;99.90;;;;;;4954132;29;20781;-77
2023/11/03 01:18:02;;;;;;;4.40;1.13;;;11.00;99.90;;;;;;4954356;28;20069;-76
2023/11/03 01:20:48;;;;;;;6.85;1.50;;;11.00;99.90;;;;;;4952460;29;20102;-78
2023/11/03 01:23:35;;;;;;;4.78;0.90;;;11.00;99.90;;;;;;4964427;28;20428;-75
2023/11/03 01:26:25;;;;;;;3.83;0.98;;;11.00;99.90;;;;;;4957765;28;20069;-77
2023/11/03 01:29:12;;;;;;;4.55;1.38;;;11.00;99.90;;;;;;4955296;28;20153;-76
2023/11/03 01:32:02;;;;;;;5.37;1.37;;;11.00;99.90;;;;;;4977810;28;20106;-75
2023/11/03 01:34:48;;;;;;;5.13;1.20;;;10.90;99.90;;;;;;4953106;28;20126;-77
2023/11/03 01:37:34;;;;;;;5.15;1.17;;;10.90;99.90;;;;;;4955164;28;20141;-77
2023/11/03 01:40:23;;;;;;;3.83;1.10;;;10.80;99.90;;;;;;4955877;29;20046;-75
2023/11/03 01:43:09;;;;;;;6.03;1.00;;;10.70;99.90;;;;;;4958677;29;20078;-76
2023/11/03 01:45:56;;;;;;;6.22;1.00;;;10.70;99.90;;;;;;4957693;28;20054;-76
2023/11/03 01:48:43;;;;;;;7.07;0.93;;;10.70;99.90;;;;;;4964890;28;20356;-77
2023/11/03 01:51:29;;;;;;;3.55;1.00;;;10.70;99.90;;;;;;4973891;28;20089;-78
2023/11/03 01:54:15;;;;;;;6.63;1.17;;;10.60;99.90;;;;;;4946431;29;20113;-78
2023/11/03 01:57:01;;;;;;;5.22;1.27;;;10.60;99.90;;;;;;4975076;28;20054;-77
2023/11/03 01:59:53;;;;;;;4.68;1.10;;;10.50;99.90;;;;;;4943825;28;20043;-76
2023/11/03 02:02:39;;;;;;;7.80;1.52;;;10.50;99.90;;;;;;4960702;28;20055;-76
2023/11/03 02:05:27;;;;;;;4.70;1.30;;;10.50;99.90;;;;;;4931141;28;20486;-74
2023/11/03 02:08:17;;;;;;;8.52;1.20;;;10.50;99.90;;;;;;4957930;28;20054;-75
2023/11/03 02:11:03;;;;;;;8.60;1.30;;;10.50;99.90;;;;;;4964321;28;20039;-77
2023/11/03 02:13:52;;;;;;;5.18;1.58;;;10.50;99.90;;;;;;4975648;28;20042;-75
2023/11/03 02:16:38;;;;;;;2.97;1.00;;;10.40;99.90;;;;;;4975181;28;20043;-75
2023/11/03 02:19:24;;;;;;;7.15;1.40;;;10.40;99.90;;;;;;4957571;29;20055;-76
2023/11/03 02:22:13;;;;;;;7.18;1.08;;;10.40;99.90;;;;;;4958365;28;20039;-74
2023/11/03 02:24:59;;;;;;;5.70;1.73;;;10.40;99.90;;;;;;4966559;28;20097;-76
2023/11/03 02:27:45;;;;;;;4.93;1.00;;;10.30;99.90;;;;;;4950531;28;20487;-75
2023/11/03 02:30:31;;;;;;;6.85;1.58;;;10.30;99.90;;;;;;4976080;28;20047;-74
2023/11/03 02:33:17;;;;;;;6.93;1.20;;;10.30;99.90;;;;;;4975273;28;20039;-76
2023/11/03 02:36:07;;;;;;;8.95;1.40;;;10.30;99.90;;;;;;4966064;28;20769;-78
2023/11/03 02:38:53;;;;;;;7.43;1.48;;;10.30;99.90;;;;;;4959208;28;20038;-77
2023/11/03 02:41:39;;;;;;;7.40;1.88;;;10.20;99.90;;;;;;4953449;28;20034;-77
2023/11/03 02:44:25;;;;;;;7.75;1.30;;;10.10;99.90;;;;;;4953418;28;20093;-75
2023/11/03 02:47:11;;;;;;;7.78;1.10;;;10.10;99.90;;;;;;4963187;28;20105;-77
2023/11/03 02:49:57;;;;;;;5.28;1.33;;;10.00;99.90;;;;;;4956343;29;20067;-75
2023/11/03 02:52:43;;;;;;;8.15;1.58;;;10.00;99.90;;;;;;4959126;28;20122;-76
2023/11/03 02:55:29;;;;;;;3.97;1.10;;;10.00;99.90;;;;;;4961578;28;20043;-74
2023/11/03 02:58:16;;;;;;;6.82;1.10;;;10.00;99.90;;;;;;4948204;28;20054;-78
2023/11/03 03:01:05;;;;;;;8.40;1.90;;;9.90;99.90;;;;;;4960643;28;20072;-74
2023/11/03 03:03:51;;;;;;;8.32;1.98;;;9.90;99.90;;;;;;4959893;28;20376;-76
2023/11/03 03:06:39;;;;;;;7.05;1.10;;;9.90;99.90;;;;;;4943382;29;20507;-78
2023/11/03 03:09:28;;;;;;;6.20;1.33;;;9.90;99.90;;;;;;4960751;28;20049;-78
2023/11/03 03:12:15;;;;;;;5.32;1.42;;;9.90;99.90;;;;;;4942407;29;20043;-75
2023/11/03 03:15:05;;;;;;;7.25;1.30;;;9.80;99.90;;;;;;4965498;28;20045;-76
2023/11/03 03:17:51;;;;;;;5.18;1.23;;;9.80;99.90;;;;;;4954695;28;20395;-77
2023/11/03 03:20:37;;;;;;;7.47;1.20;;;9.80;99.90;;;;;;4941643;29;20045;-77
2023/11/03 03:23:23;;;;;;;4.68;1.10;;;9.80;99.90;;;;;;4947529;28;20034;-77
2023/11/03 03:26:09;;;;;;;8.82;1.63;;;9.70;99.90;;;;;;4975321;28;20074;-76
2023/11/03 03:28:55;;;;;;;4.80;1.35;;;9.70;99.90;;;;;;4961922;28;20043;-77
2023/11/03 03:31:43;;;;;;;4.57;0.98;;;9.80;99.90;;;;;;4960605;28;20089;-77
2023/11/03 03:34:29;;;;;;;6.65;1.20;;;9.70;99.90;;;;;;4956457;29;20035;-77
2023/11/03 03:37:15;;;;;;;7.45;1.27;;;9.70;99.90;;;;;;4953814;28;20053;-77
2023/11/03 03:40:02;;;;;;;5.40;1.00;;;9.70;99.90;;;;;;4960857;28;20126;-77
2023/11/03 03:42:48;;;;;;;10.85;1.80;;;9.70;99.90;;;;;;4954592;28;20105;-77
2023/11/03 03:45:34;;;;;;;7.22;1.50;;;9.70;99.90;;;;;;4949791;28;20031;-76
2023/11/03 03:48:19;;;;;;;11.23;1.90;;;9.70;99.90;;;;;;4957413;28;20480;-76
2023/11/03 03:51:06;;;;;;;4.05;1.00;;;9.70;99.90;;;;;;4942748;29;20054;-77
2023/11/03 03:53:51;;;;;;;4.25;1.48;;;9.70;99.90;;;;;;4974061;28;20530;-77
2023/11/03 03:56:37;;;;;;;6.50;1.20;;;9.60;99.90;;;;;;4958541;28;20098;-77
2023/11/03 03:59:23;;;;;;;5.82;0.98;;;9.60;99.90;;;;;;4961021;28;20498;-76
2023/11/03 04:02:11;;;;;;;8.88;1.13;;;9.60;99.90;;;;;;4947943;28;20070;-77
2023/11/03 04:04:57;;;;;;;11.07;1.90;;;9.60;99.90;;;;;;4979544;28;20039;-77
2023/11/03 04:07:43;;;;;;;6.45;1.25;;;9.70;99.90;;;;;;4962395;28;20038;-76
2023/11/03 04:10:29;;;;;;;8.48;1.58;;;9.60;99.90;;;;;;4957319;28;20043;-76
2023/11/03 04:13:15;;;;;;;6.13;1.20;;;9.60;99.90;;;;;;4936429;28;20043;-76
2023/11/03 04:16:01;;;;;;;5.53;1.70;;;9.60;99.90;;;;;;4955780;29;20043;-76
2023/11/03 04:18:47;;;;;;;8.27;2.38;;;9.60;99.90;;;;;;4952949;28;20761;-77
2023/11/03 04:21:33;;;;;;;4.28;1.35;;;9.60;99.90;;;;;;4954455;28;20034;-76
2023/11/03 04:24:19;;;;;;;8.27;1.30;;;9.60;99.90;;;;;;4952810;28;20040;-77
2023/11/03 04:27:05;;;;;;;7.32;1.60;;;9.50;99.90;;;;;;4941543;29;20039;-77
2023/11/03 04:29:51;;;;;;;7.97;1.40;;;9.50;99.90;;;;;;4942984;29;20047;-77
2023/11/03 04:32:37;;;;;;;8.32;1.65;;;9.50;99.90;;;;;;4957925;28;20432;-77
2023/11/03 04:35:23;;;;;;;9.40;2.00;;;9.50;99.90;;;;;;4951121;29;20102;-78
2023/11/03 04:38:09;;;;;;;6.40;1.30;;;9.50;99.90;;;;;;4960506;28;20046;-77
2023/11/03 04:40:55;;;;;;;5.80;0.98;;;9.40;99.90;;;;;;4971692;28;20096;-77
2023/11/03 04:43:44;;;;;;;7.85;1.63;;;9.40;99.90;;;;;;4974214;28;20034;-77
2023/11/03 04:46:30;;;;;;;6.30;1.30;;;9.40;99.90;;;;;;4953495;28;20043;-77
2023/11/03 04:49:17;;;;;;;9.80;1.35;;;9.30;99.90;;;;;;4954805;29;20110;-77
2023/11/03 04:52:04;;;;;;;7.43;2.00;;;9.40;99.90;;;;;;4966113;28;20129;-77
2023/11/03 04:54:50;;;;;;;5.97;1.58;;;9.30;99.90;;;;;;4945994;28;20471;-76
2023/11/03 04:57:36;;;;;;;7.20;1.45;;;9.30;99.90;;;;;;4974480;28;20051;-77
2023/11/03 05:00:22;;;;;;;8.85;1.55;;;9.30;99.90;;;;;;4945091;28;20038;-77
2023/11/03 05:03:08;;;;;;;6.88;1.65;;;9.30;99.90;;;;;;4955072;28;20396;-77
2023/11/03 05:05:56;;;;;;;11.00;2.17;;;9.30;99.90;;;;;;4954996;29;20035;-77
2023/11/03 05:08:42;;;;;;;;;;;9.30;99.90;;;;;;4943899;29;20050;-77
2023/11/03 05:11:29;;;;;;;9.57;1.55;;;9.30;99.90;;;;;;4946310;28;19914;-78
2023/11/03 05:14:15;;;;;;;4.97;1.55;;;9.30;99.90;;;;;;4945020;29;20085;-77
2023/11/03 05:17:01;;;;;;;7.13;1.48;;;9.40;99.90;;;;;;4957720;29;20151;-77
2023/11/03 05:19:48;;;;;;;7.45;1.42;;;9.40;99.90;;;;;;4960176;28;20070;-77
2023/11/03 05:22:35;;;;;;;6.40;1.73;;;9.40;99.90;;;;;;4965256;28;20039;-77
2023/11/03 05:25:21;;;;;;;5.60;1.42;;;9.40;99.90;;;;;;4950310;28;20046;-78
2023/11/03 05:28:07;;;;;;;8.85;1.67;;;9.30;99.90;;;;;;4945957;28;20053;-77
2023/11/03 05:30:54;;;;;;;9.45;1.63;;;9.30;99.90;;;;;;4961805;28;20057;-77
2023/11/03 05:33:40;;;;;;;5.63;1.30;;;9.40;99.90;;;;;;4976904;28;20054;-77
2023/11/03 05:36:26;;;;;;;8.13;1.67;;;9.40;99.90;;;;;;4962955;28;20039;-77
2023/11/03 05:39:12;;;;;;;8.45;1.40;;;9.40;99.90;;;;;;4964154;28;20039;-77
2023/11/03 05:41:58;;;;;;;7.75;1.65;;;9.30;99.90;;;;;;4963067;28;20379;-77
2023/11/03 05:44:44;;;;;;;6.05;1.40;;;9.30;99.90;;;;;;4970866;28;20038;-77
2023/11/03 05:47:30;;;;;;;5.57;1.08;;;9.30;99.90;;;;;;4948035;28;20074;-77
2023/11/03 05:50:16;;;;;;;7.40;1.27;;;9.30;99.90;;;;;;4957601;29;20035;-76
2023/11/03 05:53:03;;;;;;;3.70;1.00;;;9.30;99.90;;;;;;4946026;28;20078;-77
2023/11/03 05:55:49;;;;;;;6.22;1.42;;;9.30;99.90;;;;;;4932235;29;20456;-77
2023/11/03 05:58:35;;;;;;;4.43;1.08;;;9.30;99.90;;;;;;4970881;28;20169;-77
2023/11/03 06:01:21;;;;;;;5.85;1.15;;;9.30;99.90;;;;;;4975465;28;20116;-78
2023/11/03 06:04:07;;;;;;;5.35;1.10;;;9.30;99.90;;;;;;4976461;28;20114;-77
2023/11/03 06:06:53;;;;;;;8.52;1.45;;;9.30;99.90;;;;;;4947350;28;20744;-76
2023/11/03 06:09:39;;;;;;;6.45;1.58;;;9.30;99.90;;;;;;4969755;28;20058;-77
2023/11/03 06:12:25;;;;;;;5.07;1.25;;;9.30;99.90;;;;;;4976125;28;20129;-77
2023/11/03 06:15:13;;;;;;;3.67;1.17;;;9.30;99.90;;;;;;4973018;28;20468;-77
2023/11/03 06:17:59;;;;;;;8.10;2.20;;;9.30;99.90;;;;;;4974970;28;20055;-77
2023/11/03 06:20:45;;;;;;;9.00;1.85;;;9.30;99.90;;;;;;4973840;28;20042;-77
2023/11/03 06:23:30;;;;;;;3.78;0.90;;;9.30;99.90;;;;;;4963225;28;20725;-76
2023/11/03 06:26:16;;;;;;;5.93;1.50;;;9.30;99.90;;;;;;4976634;28;20039;-77
2023/11/03 06:29:02;;;;;;;6.10;1.75;;;9.30;99.90;;;;;;4958764;28;20043;-78
2023/11/03 06:31:48;;;;;;;6.72;1.20;;;9.30;99.90;;;;;;4976325;28;20491;-77
2023/11/03 06:34:34;;;;;;;7.80;1.48;;;9.30;99.90;;;;;;4962766;28;20046;-77
2023/11/03 06:37:20;;;;;;;5.93;1.48;;;9.30;99.90;;;;;;4962520;28;20383;-77
2023/11/03 06:40:11;;;;;;;6.18;1.50;;;9.40;99.90;;;;;;4943884;28;20123;-78
2023/11/03 06:42:57;;;;;;;8.15;2.05;;;9.40;99.90;;;;;;4963286;28;20046;-77
2023/11/03 06:45:43;;;;;;;4.88;1.27;;;9.40;99.90;;;;;;4961937;28;20049;-77
2023/11/03 06:48:29;;;;;;;8.77;1.30;;;9.40;99.90;;;;;;4974307;28;20035;-77
2023/11/03 06:51:16;;;;;;;7.20;1.58;;;9.40;99.90;;;;;;4954977;28;20034;-77
2023/11/03 06:54:04;;;;;;;9.32;2.03;;;9.40;99.90;;;;;;4967239;28;20122;-78
2023/11/03 06:56:50;;;;;;;2.45;0.85;;;9.40;99.90;;;;;;4949706;29;20043;-78
2023/11/03 06:59:36;;;;;;;7.43;1.77;;;9.40;99.90;;;;;;4936429;28;20494;-77
2023/11/03 07:02:22;;;;;;;7.32;1.90;;;9.50;99.90;;;;;;4941260;28;20301;-77
2023/11/03 07:05:11;;;;;;;5.55;1.58;;;9.40;99.90;;;;;;4972566;28;20704;-77
2023/11/03 07:07:57;;;;;;;7.57;1.38;;;9.50;99.90;;;;;;4969168;28;20077;-77
2023/11/03 07:10:44;;;;;;;7.15;1.50;;;9.50;99.90;;;;;;4955438;28;20392;-77
2023/11/03 07:13:30;;;;;;;4.30;1.08;;;9.50;99.90;;;;;;4978191;28;20122;-77
2023/11/03 07:16:16;;;;;;;6.03;1.05;;;9.50;99.90;;;;;;4969004;28;20039;-78
2023/11/03 07:19:02;;;;;;;18.55;2.22;;;9.50;99.90;;;;;;4983747;28;20047;-78
2023/11/03 07:21:57;;;;;;;8.05;1.35;;;9.50;99.90;;;;;;4960497;28;20097;-78
2023/11/03 07:24:43;;;;;;;7.25;1.17;;;9.60;99.90;;;;;;4949305;28;20115;-79
2023/11/03 07:27:29;;;;;;;5.53;1.55;;;9.60;99.90;;;;;;4973894;28;20456;-77
2023/11/03 07:30:15;;;;;;;3.25;1.13;;;9.60;99.90;;;;;;4965137;28;20145;-79
2023/11/03 07:33:03;;;;;;;5.20;1.33;;;9.60;99.90;;;;;;4958710;28;20047;-79
2023/11/03 07:35:54;;;;;;;5.32;1.20;;;9.60;99.90;;;;;;4942946;29;20051;-77
2023/11/03 07:38:40;;;;;;;5.93;1.15;;;9.70;99.90;;;;;;4956227;28;20047;-78
2023/11/03 07:41:26;;;;;;;4.68;1.15;;;9.70;99.90;;;;;;4957966;28;20494;-78
2023/11/03 07:44:12;;;;;;;5.90;1.10;;;9.80;99.90;;;;;;4965139;28;20046;-78
2023/11/03 07:47:01;;;;;;;3.13;1.10;;;9.80;99.90;;;;;;4966046;28;20046;-77
2023/11/03 07:49:47;;;;;;;7.15;1.35;;;9.80;99.90;;;;;;4958933;28;20039;-78
2023/11/03 07:52:33;;;;;;;6.22;1.40;;;9.90;99.90;;;;;;4943598;28;20050;-77
2023/11/03 07:55:20;;;;;;;5.47;2.08;;;9.90;99.90;;;;;;4955279;28;20051;-77
2023/11/03 07:58:06;;;;;;;7.20;1.40;;;10.00;99.90;;;;;;4970953;28;20042;-77
2023/11/03 08:00:52;;;;;;;4.18;1.25;;;10.00;99.90;;;;;;4967827;28;20039;-77
2023/11/03 08:03:38;;;;;;;3.65;1.30;;;10.10;99.90;;;;;;4968454;28;20117;-77
2023/11/03 08:06:25;;;;;;;9.65;1.67;;;10.10;99.90;;;;;;4957875;28;20097;-77
2023/11/03 08:09:11;;;;;;;8.55;1.50;;;10.20;99.90;;;;;;4942235;28;20046;-76
2023/11/03 08:11:58;;;;;;;8.68;1.95;;;10.20;99.90;;;;;;4955560;28;20038;-77
2023/11/03 08:14:45;;;;;;;6.57;2.03;;;10.20;99.90;;;;;;4957042;28;20126;-77
2023/11/03 08:17:31;;;;;;;12.80;2.85;;;10.30;99.90;;;;;;4940805;28;20109;-74
2023/11/03 08:20:19;;;;;;;8.23;1.90;;;10.40;99.90;;;;;;4947063;29;20630;-74
2023/11/03 08:23:05;;;;;;;6.63;2.03;;;10.40;99.90;;;;;;4959606;28;20051;-74
2023/11/03 08:25:51;;;;;;;5.18;1.40;;;10.50;99.90;;;;;;4974584;28;20039;-74
2023/11/03 08:28:37;;;;;;;8.02;1.83;;;10.50;99.90;;;;;;4947683;28;20074;-75
2023/11/03 08:31:23;;;;;;;7.28;2.33;;;10.50;99.90;;;;;;4961843;28;20053;-73
2023/11/03 08:34:11;;;;;;;9.00;1.73;;;10.50;99.90;;;;;;4960008;28;20098;-74
2023/11/03 08:36:57;;;;;;;7.93;1.75;;;10.60;99.90;;;;;;4974968;28;20043;-74
2023/11/03 08:39:43;;;;;;;5.32;1.40;;;10.70;99.90;;;;;;4961198;28;20039;-74
2023/11/03 08:42:29;;;;;;;7.72;1.23;;;10.70;99.90;;;;;;4944872;28;20369;-74
2023/11/03 08:45:15;;;;;;;6.45;1.40;;;10.70;99.90;;;;;;4964476;28;20043;-74
2023/11/03 08:48:01;;;;;;;8.00;1.23;;;10.70;99.90;;;;;;4960681;28;20039;-73
2023/11/03 08:50:49;;;;;;;4.22;1.17;;;11.10;99.90;;;;;;4971780;28;20050;-73
2023/11/03 08:53:34;;;;;;;9.38;1.30;;;11.10;99.90;;;;;;4963456;28;20050;-73
2023/11/03 08:56:22;;;;;;;9.13;1.63;;;11.10;99.90;;;;;;4976484;28;20039;-74
2023/11/03 08:59:08;;;;;;;6.00;1.63;;;11.20;99.90;;;;;;4977575;28;20043;-74
2023/11/03 09:01:55;;;;;;;12.25;2.03;;;11.40;99.90;;;;;;4975188;28;20053;-73
2023/11/03 09:04:41;;;;;;;7.00;1.48;;;11.40;99.90;;;;;;4969951;28;20071;-73
2023/11/03 09:07:29;;;;;;;6.72;1.52;;;11.50;99.90;;;;;;4958852;28;20062;-73
2023/11/03 09:10:15;;;;;;;9.90;1.60;;;11.40;99.90;;;;;;4951364;28;20145;-74
2023/11/03 09:13:01;;;;;;;10.32;2.25;;;11.50;99.90;;;;;;4960010;28;20061;-74
2023/11/03 09:15:48;;;;;;;6.93;2.17;;;11.60;99.90;;;;;;4959421;28;20043;-74
2023/11/03 09:18:34;;;;;;;3.73;1.50;;;11.70;99.90;;;;;;4963778;28;20087;-74
2023/11/03 09:21:20;;;;;;;8.43;1.73;;;11.80;99.90;;;;;;4962664;28;20038;-74
2023/11/03 09:24:06;;;;;;;6.13;1.60;;;11.80;99.90;;;;;;4962453;28;20038;-74
2023/11/03 09:26:53;;;;;;;11.30;2.03;;;12.00;99.90;;;;;;4961986;28;20046;-74
2023/11/03 09:29:41;;;;;;;6.45;1.38;;;12.00;99.90;;;;;;4961126;28;20039;-73
2023/11/03 09:32:27;;;;;;;6.50;1.80;;;12.30;99.90;;;;;;4962037;28;20046;-72
2023/11/03 09:35:13;;;;;;;5.43;1.30;;;12.50;99.90;;;;;;4956961;28;20483;-73
2023/11/03 09:37:59;;;;;;;3.33;1.00;;;12.50;99.90;;;;;;4968587;28;20148;-73
2023/11/03 09:40:46;;;;;;;3.13;0.95;;;12.60;99.90;;;;;;4962280;28;20193;-72
2023/11/03 09:43:33;;;;;;;5.05;1.30;;;12.70;99.90;;;;;;4944432;29;20044;-73
2023/11/03 09:46:20;;;;;;;9.05;1.88;;;12.80;99.90;;;;;;4969744;28;20145;-72
2023/11/03 09:49:06;;;;;;;9.82;1.70;;;12.90;99.90;;;;;;4945863;28;20043;-73
2023/11/03 09:51:52;;;;;;;5.22;1.40;;;12.90;99.90;;;;;;4962084;28;20097;-72
2023/11/03 09:54:41;;;;;;;5.53;1.75;;;13.10;99.90;;;;;;4960252;28;20039;-72
2023/11/03 09:57:28;;;;;;;8.00;1.95;;;13.30;99.90;;;;;;4947603;28;20045;-72
2023/11/03 10:00:16;;;;;;;9.35;1.75;;;13.20;99.90;;;;;;4961515;28;20797;-72
2023/11/03 10:03:02;;;;;;;6.43;1.27;;;13.20;99.90;;;;;;4939231;28;20484;-73
2023/11/03 10:05:48;;;;;;;5.60;1.77;;;13.30;99.90;;;;;;4967933;28;20042;-73
2023/11/03 10:08:37;;;;;;;7.63;1.48;;;13.30;99.90;;;;;;4970199;28;20082;-72
2023/11/03 10:11:23;;;;;;;6.97;1.70;;;13.40;99.90;;;;;;4947302;28;20042;-73
2023/11/03 10:14:09;;;;;;;8.63;1.70;;;13.50;99.90;;;;;;4952507;28;20047;-73
2023/11/03 10:16:58;;;;;;;6.57;1.58;;;13.50;99.90;;;;;;4972541;28;20047;-72
2023/11/03 10:19:45;;;;;;;8.98;1.58;;;13.70;99.90;;;;;;4964001;28;20320;-73
2023/11/03 10:22:31;;;;;;;4.78;1.20;;;13.30;99.90;;;;;;4963725;28;20042;-73
2023/11/03 10:25:21;;;;;;;8.65;1.40;;;13.20;99.90;;;;;;4962810;28;20419;-73
2023/11/03 10:28:07;;;;;;;3.97;1.17;;;13.10;99.90;;;;;;4969499;28;20053;-73
2023/11/03 10:30:57;;;;;;;8.73;1.92;;;13.00;99.90;;;;;;4957738;28;20070;-74
2023/11/03 10:33:43;;;;;;;5.05;1.10;;;12.80;99.90;;;;;;4963248;28;20388;-73
2023/11/03 10:36:29;;;;;;;7.13;1.42;;;12.80;99.90;;;;;;4955272;28;20483;-74
2023/11/03 10:39:19;;;;;;;7.18;1.30;;;12.80;99.90;;;;;;4952715;28;20043;-73
2023/11/03 10:42:05;;;;;;;6.47;1.33;;;12.80;99.90;;;;;;4957611;28;20452;-73
2023/11/03 10:44:53;;;;;;;11.25;2.17;;;12.80;99.90;;;;;;4935711;28;20376;-74
2023/11/03 10:48:09;;;;;;;7.65;1.70;;;12.70;99.90;;;;;;4959769;28;20035;-74
2023/11/03 10:50:59;;;;;;;7.03;2.08;;;12.70;99.90;;;;;;4960854;28;20038;-74
2023/11/03 10:54:26;;;;;;;5.28;2.08;;;12.40;99.90;;;;;;4962614;28;20042;-74
2023/11/03 10:57:12;;;;;;;6.03;1.97;;;12.10;99.90;;;;;;4956316;28;20089;-73
2023/11/03 11:00:22;;;;;;;10.45;2.10;;;12.10;99.90;;;;;;4947741;28;20058;-74
2023/11/03 11:03:19;;;;;;;8.27;1.70;;;12.00;99.90;;;;;;4965373;28;20043;-74
2023/11/03 11:06:26;;;;;;;6.53;2.08;;;12.00;99.90;;;;;;4964340;28;20043;-73
2023/11/03 11:09:37;;;;;;;8.43;1.60;;;12.00;99.90;;;;;;4953619;28;20043;-74
2023/11/03 11:12:26;;;;;;;8.93;1.80;;;12.30;99.90;;;;;;4942267;29;20051;-74
2023/11/03 11:15:24;;;;;;;5.13;1.60;;;12.50;99.90;;;;;;4962245;28;20472;-73
2023/11/03 11:18:16;;;;;;;7.30;1.90;;;12.40;99.90;;;;;;4944299;29;20350;-76
2023/11/03 11:21:11;;;;;;;7.70;1.55;;;12.40;99.90;;;;;;4971826;28;20542;-74
2023/11/03 11:23:57;;;;;;;7.32;1.73;;;12.50;99.90;;;;;;4950869;28;20468;-76
2023/11/03 11:26:43;;;;;;;7.97;1.30;;;12.30;99.90;;;;;;4955425;28;20051;-76
2023/11/03 11:29:30;;;;;;;7.85;2.10;;;12.30;99.90;;;;;;4944347;29;20099;-77
2023/11/03 11:32:22;;;;;;;6.53;1.70;;;12.80;99.90;;;;;;4955094;29;20039;-77
2023/11/03 11:35:08;;;;;;;8.32;1.10;;;12.70;99.90;;;;;;4973291;28;20495;-77
2023/11/03 11:37:54;;;;;;;6.03;1.20;;;12.50;99.90;;;;;;4973922;28;20043;-77
2023/11/03 11:40:41;;;;;;;6.75;1.30;;;12.50;99.90;;;;;;4965943;28;20043;-76
2023/11/03 11:43:27;;;;;;;9.90;1.67;;;12.30;99.90;;;;;;4971286;28;20126;-76
2023/11/03 11:46:15;;;;;;;7.10;1.77;;;12.30;99.90;;;;;;4973356;28;20054;-76
2023/11/03 11:49:02;;;;;;;7.28;1.90;;;12.30;99.90;;;;;;4961332;28;20049;-77
2023/11/03 11:51:52;;;;;;;8.35;1.40;;;12.40;99.90;;;;;;4961194;28;20471;-76
2023/11/03 11:54:38;;;;;;;7.22;1.42;;;12.30;99.90;;;;;;4929914;29;20134;-77
2023/11/03 11:57:27;;;;;;;6.32;1.27;;;12.90;99.90;;;;;;4955676;29;20063;-77
2023/11/03 12:00:15;;;;;;;7.03;1.90;;;13.80;99.90;;;;;;4942647;29;20479;-77
2023/11/03 12:03:01;;;;;;;7.93;1.38;;;13.90;99.90;;;;;;4950133;28;20047;-77
2023/11/03 12:05:47;;;;;;;8.05;1.40;;;14.00;99.90;;;;;;4944188;28;20067;-77
2023/11/03 12:08:34;;;;;;;9.27;1.75;;;13.80;99.90;;;;;;4970300;28;20085;-77
2023/11/03 12:11:22;;;;;;;6.40;2.28;;;13.30;99.90;;;;;;4941973;28;20050;-77
2023/11/03 12:14:09;;;;;;;9.02;2.25;;;12.90;99.90;;;;;;4957659;28;20388;-77
2023/11/03 12:16:55;;;;;;;13.18;2.78;;;12.80;99.90;;;;;;4949290;28;20130;-77
2023/11/03 12:19:46;;;;;;;11.25;2.55;;;12.60;99.90;;;;;;4965481;28;20062;-77
2023/11/03 12:22:32;;;;;;;8.30;1.48;;;12.50;99.90;;;;;;4965878;28;20042;-76
2023/11/03 12:25:18;;;;;;;9.90;1.70;;;12.50;99.90;;;;;;4953537;29;20035;-77
2023/11/03 12:28:05;;;;;;;6.50;1.70;;;12.40;99.90;;;;;;4974189;28;20054;-77
2023/11/03 12:30:51;;;;;;;6.00;1.63;;;12.40;99.90;;;;;;4963154;28;20046;-76
2023/11/03 12:33:37;;;;;;;16.85;2.83;;;12.30;99.90;;;;;;4978883;28;20078;-77
2023/11/03 12:36:26;;;;;;;10.63;1.70;;;12.30;99.90;;;;;;4963429;28;20050;-77
2023/11/03 12:39:12;;;;;;;8.15;1.90;;;12.30;99.90;;;;;;4957101;29;20094;-75
2023/11/03 12:42:07;;;;;;;7.00;1.40;;;12.30;99.90;;;;;;4952608;28;20073;-75
2023/11/03 12:44:59;;;;;;;6.43;1.80;;;12.20;99.90;;;;;;4948748;28;20389;-74
2023/11/03 12:47:49;;;;;;;8.93;1.80;;;12.30;99.90;;;;;;4971528;28;20050;-76
2023/11/03 12:50:40;;;;;;;9.48;1.80;;;12.20;99.90;;;;;;4956267;28;20035;-76
2023/11/03 12:53:27;;;;;;;11.88;1.83;;;12.20;99.90;;;;;;4978026;28;20053;-76
2023/11/03 12:56:15;;;;;;;11.27;1.60;;;12.20;99.90;;;;;;4971229;28;20054;-76
2023/11/03 12:59:01;;;;;;;6.95;1.38;;;12.10;99.90;;;;;;4956641;29;20107;-77
2023/11/03 13:01:47;;;;;;;7.90;1.70;;;12.10;99.90;;;;;;4971656;28;20085;-76
2023/11/03 13:04:33;;;;;;;8.05;1.40;;;12.10;99.90;;;;;;4963033;28;20050;-75
2023/11/03 13:07:19;;;;;;;8.18;1.75;;;12.10;99.90;;;;;;4968396;28;20073;-76
2023/11/03 13:10:06;;;;;;;10.20;1.67;;;12.10;99.90;;;;;;4950499;28;20035;-76
2023/11/03 13:12:52;;;;;;;9.00;1.45;;;12.20;99.90;;;;;;4963390;28;20109;-76
2023/11/03 13:15:38;;;;;;;7.70;1.55;;;12.20;99.90;;;;;;4976781;28;20113;-76
2023/11/03 13:18:24;;;;;;;8.07;1.50;;;12.20;99.90;;;;;;4964075;28;20063;-76
2023/11/03 13:21:10;;;;;;;8.88;2.20;;;12.30;99.90;;;;;;4975881;28;20035;-76
2023/11/03 13:23:56;;;;;;;6.40;1.92;;;12.30;99.90;;;;;;4950839;28;20401;-76
2023/11/03 13:26:42;;;;;;;7.78;2.45;;;12.30;99.90;;;;;;4963937;28;20399;-77
2023/11/03 13:29:28;;;;;;;6.78;2.30;;;12.30;99.90;;;;;;4962307;28;20531;-76
2023/11/03 13:32:18;;;;;;;8.70;1.90;;;12.40;99.90;;;;;;4965101;28;20046;-76
2023/11/03 13:35:06;;;;;;;9.93;2.00;;;12.30;99.90;;;;;;4946843;28;20054;-75
2023/11/03 13:37:52;;;;;;;9.02;1.95;;;12.30;99.90;;;;;;4932743;28;20532;-76
2023/11/03 13:40:39;;;;;;;9.10;2.40;;;12.30;99.90;;;;;;4948708;28;20043;-76
2023/11/03 13:43:25;;;;;;;7.40;1.50;;;12.30;99.90;;;;;;4974944;28;20066;-76
2023/11/03 13:46:14;;;;;;;9.65;1.85;;;12.40;99.90;;;;;;4938940;28;20053;-76
2023/11/03 13:49:03;;;;;;;7.60;1.58;;;12.40;99.90;;;;;;4956627;29;20122;-76
2023/11/03 13:51:49;;;;;;;6.38;1.35;;;12.50;99.90;;;;;;4957335;29;20380;-76
2023/11/03 13:54:36;;;;;;;14.25;2.25;;;12.70;99.90;;;;;;4957555;28;20384;-76
2023/11/03 13:57:22;;;;;;;9.20;1.98;;;12.70;99.90;;;;;;4958861;28;20042;-76
2023/11/03 14:00:13;;;;;;;9.70;1.80;;;12.70;99.90;;;;;;4952603;28;20030;-76
2023/11/03 14:02:59;;;;;;;9.25;1.60;;;12.70;99.90;;;;;;4969121;28;20073;-76
2023/11/03 14:05:46;;;;;;;6.40;1.65;;;12.80;99.90;;;;;;4975598;28;20042;-76
2023/11/03 14:08:33;;;;;;;6.50;1.48;;;12.70;99.90;;;;;;4976906;28;20189;-76
2023/11/03 14:11:19;;;;;;;7.73;1.43;;;12.80;99.90;;;;;;4969754;28;20046;-75
2023/11/03 14:14:07;;;;;;;5.53;1.30;;;12.70;99.90;;;;;;4976355;28;20046;-76
2023/11/03 14:16:52;;;;;;;9.00;1.75;;;12.80;99.90;;;;;;4947994;28;20275;-76
2023/11/03 14:19:40;;;;;;;10.27;2.35;;;12.80;99.90;;;;;;4976804;28;20054;-76
2023/11/03 14:22:26;;;;;;;6.90;1.50;;;12.90;99.90;;;;;;4960047;28;20047;-76
2023/11/03 14:25:12;;;;;;;8.13;1.60;;;12.90;99.90;;;;;;4957217;28;20445;-76
2023/11/03 14:27:58;;;;;;;7.97;1.70;;;12.90;99.90;;;;;;4961283;28;20042;-76
2023/11/03 14:30:46;;;;;;;5.82;1.40;;;12.90;99.90;;;;;;4961643;28;20039;-76
2023/11/03 14:33:32;;;;;;;5.53;1.73;;;12.80;99.90;;;;;;4964957;28;20498;-76